createdAt,value
2023-06-17T00:00:46.598Z,5.87
2023-06-17T00:01:49.596Z,5.72
2023-06-17T00:02:53.046Z,5.37
2023-06-17T00:03:56.207Z,5.45
2023-06-17T00:04:59.298Z,5.72
2023-06-17T00:06:02.328Z,5.72
2023-06-17T00:07:05.467Z,6.05
2023-06-17T00:08:08.428Z,5.85
2023-06-17T00:09:11.376Z,6.03
2023-06-17T00:10:14.377Z,6.55
2023-06-17T00:11:17.104Z,5.68
2023-06-17T00:12:20.049Z,5.50
2023-06-17T00:13:23.037Z,5.43
2023-06-17T00:14:26.200Z,5.00
2023-06-17T00:15:34.190Z,5.20
2023-06-17T00:16:38.370Z,5.60
2023-06-17T00:17:46.507Z,5.53
2023-06-17T00:18:53.119Z,5.50
2023-06-17T00:19:58.343Z,5.03
2023-06-17T00:21:01.237Z,5.12
2023-06-17T00:22:05.275Z,5.20
2023-06-17T00:23:09.642Z,5.10
2023-06-17T00:24:15.403Z,5.10
2023-06-17T00:25:18.297Z,5.00
2023-06-17T00:26:21.154Z,5.40
2023-06-17T00:27:24.157Z,4.97
2023-06-17T00:28:27.128Z,4.57
2023-06-17T00:29:29.940Z,4.80
2023-06-17T00:30:32.895Z,5.00
2023-06-17T00:31:35.714Z,5.07
2023-06-17T00:32:39.375Z,5.32
2023-06-17T00:33:42.288Z,5.20
2023-06-17T00:34:45.284Z,5.53
2023-06-17T00:35:48.071Z,5.18
2023-06-17T00:36:51.065Z,5.65
2023-06-17T00:37:53.998Z,5.05
2023-06-17T00:38:56.844Z,5.18
2023-06-17T00:39:59.882Z,5.00
2023-06-17T00:41:02.830Z,5.07
2023-06-17T00:42:06.094Z,4.70
2023-06-17T00:43:09.128Z,5.28
2023-06-17T00:44:12.011Z,5.07
2023-06-17T00:45:14.878Z,5.15
2023-06-17T00:46:42.384Z,4.75
2023-06-17T00:47:45.666Z,4.90
2023-06-17T00:48:48.617Z,5.07
2023-06-17T00:49:54.747Z,5.12
2023-06-17T00:51:03.589Z,4.65
2023-06-17T00:52:20.105Z,5.15
2023-06-17T00:54:30.527Z,4.70
2023-06-17T00:55:34.999Z,5.50
2023-06-17T00:56:39.105Z,4.85
2023-06-17T00:57:43.287Z,5.05
2023-06-17T00:58:46.551Z,5.03
2023-06-17T00:59:49.517Z,5.12
2023-06-17T01:00:52.630Z,5.03
2023-06-17T01:01:55.480Z,5.22
2023-06-17T01:03:00.140Z,4.97
2023-06-17T01:04:06.142Z,5.05
2023-06-17T01:05:14.249Z,4.65
2023-06-17T01:06:26.886Z,4.55
2023-06-17T01:07:30.956Z,4.82
2023-06-17T01:08:41.660Z,4.72
2023-06-17T01:09:51.685Z,4.57
2023-06-17T01:11:03.666Z,4.80
2023-06-17T01:12:08.940Z,5.10
2023-06-17T01:13:14.907Z,4.40
2023-06-17T01:14:18.524Z,5.32
2023-06-17T01:15:23.574Z,4.75
2023-06-17T01:16:27.318Z,4.95
2023-06-17T01:17:31.505Z,4.57
2023-06-17T01:18:34.656Z,4.55
2023-06-17T01:19:39.437Z,4.80
2023-06-17T01:20:43.198Z,5.00
2023-06-17T01:21:50.645Z,4.97
2023-06-17T01:22:56.006Z,4.87
2023-06-17T01:24:02.241Z,5.12
2023-06-17T01:25:05.675Z,4.97
2023-06-17T01:26:09.098Z,4.95
2023-06-17T01:27:13.368Z,5.00
2023-06-17T01:28:21.836Z,4.82
2023-06-17T01:29:25.417Z,4.95
2023-06-17T01:30:32.151Z,4.70
2023-06-17T01:31:35.484Z,4.97
2023-06-17T01:32:38.510Z,5.07
2023-06-17T01:33:44.277Z,4.75
2023-06-17T01:34:49.914Z,4.75
2023-06-17T01:36:09.117Z,4.65
2023-06-17T01:37:15.857Z,5.10
2023-06-17T01:38:34.965Z,4.90
2023-06-17T01:39:41.010Z,4.90
2023-06-17T01:40:45.565Z,5.03
2023-06-17T01:41:53.563Z,4.75
2023-06-17T01:42:57.371Z,4.80
2023-06-17T01:44:01.698Z,4.78
2023-06-17T01:45:07.907Z,4.93
2023-06-17T01:46:13.136Z,5.20
2023-06-17T01:47:16.598Z,4.75
2023-06-17T01:48:19.925Z,4.30
2023-06-17T01:49:22.911Z,4.80
2023-06-17T01:50:25.893Z,4.93
2023-06-17T01:51:28.831Z,5.53
2023-06-17T01:52:32.466Z,4.78
2023-06-17T01:53:35.652Z,4.90
2023-06-17T01:54:38.724Z,4.55
2023-06-17T01:55:41.966Z,5.20
2023-06-17T01:56:44.781Z,5.20
2023-06-17T01:57:47.719Z,4.40
2023-06-17T01:58:50.718Z,4.78
2023-06-17T01:59:54.499Z,4.85
2023-06-17T02:00:57.357Z,4.35
2023-06-17T02:02:00.213Z,4.70
2023-06-17T02:03:03.597Z,4.65
2023-06-17T02:04:06.581Z,5.05
2023-06-17T02:05:10.212Z,4.55
2023-06-17T02:06:13.476Z,4.90
2023-06-17T02:07:19.245Z,5.05
2023-06-17T02:08:23.866Z,4.65
2023-06-17T02:09:26.787Z,5.07
2023-06-17T02:10:29.760Z,4.62
2023-06-17T02:11:32.658Z,4.47
2023-06-17T02:12:35.537Z,4.62
2023-06-17T02:13:38.434Z,4.70
2023-06-17T02:14:41.444Z,4.60
2023-06-17T02:15:44.603Z,4.55
2023-06-17T02:16:48.583Z,5.00
2023-06-17T02:17:53.584Z,5.07
2023-06-17T02:18:57.180Z,5.05
2023-06-17T02:20:00.137Z,4.80
2023-06-17T02:21:03.316Z,4.90
2023-06-17T02:22:06.274Z,4.68
2023-06-17T02:23:09.405Z,5.10
2023-06-17T02:24:12.395Z,4.80
2023-06-17T02:25:15.316Z,4.87
2023-06-17T02:26:18.116Z,4.87
2023-06-17T02:27:21.440Z,4.75
2023-06-17T02:28:24.363Z,4.90
2023-06-17T02:29:27.346Z,4.50
2023-06-17T02:30:30.289Z,4.50
2023-06-17T02:31:33.980Z,5.07
2023-06-17T02:32:37.300Z,5.07
2023-06-17T02:33:40.224Z,5.12
2023-06-17T02:34:43.855Z,5.00
2023-06-17T02:35:47.556Z,4.80
2023-06-17T02:36:51.262Z,4.62
2023-06-17T02:37:56.942Z,4.80
2023-06-17T02:39:01.229Z,4.80
2023-06-17T02:40:10.577Z,4.60
2023-06-17T02:41:13.653Z,4.57
2023-06-17T02:42:16.719Z,4.62
2023-06-17T02:43:19.632Z,4.72
2023-06-17T02:44:22.511Z,5.00
2023-06-17T02:45:25.517Z,4.78
2023-06-17T02:46:29.067Z,4.50
2023-06-17T02:47:32.242Z,4.75
2023-06-17T02:48:35.148Z,4.95
2023-06-17T02:49:38.100Z,4.85
2023-06-17T02:50:41.693Z,4.97
2023-06-17T02:51:44.615Z,4.57
2023-06-17T02:52:48.547Z,4.68
2023-06-17T02:53:51.778Z,4.60
2023-06-17T02:54:54.652Z,4.70
2023-06-17T02:55:58.137Z,4.55
2023-06-17T02:57:01.064Z,4.40
2023-06-17T02:58:04.561Z,4.62
2023-06-17T02:59:09.888Z,4.50
2023-06-17T03:00:13.154Z,5.20
2023-06-17T03:01:17.889Z,5.20
2023-06-17T03:02:20.936Z,4.80
2023-06-17T03:03:36.147Z,5.28
2023-06-17T03:04:39.103Z,5.35
2023-06-17T03:05:42.891Z,5.00
2023-06-17T03:06:45.946Z,5.40
2023-06-17T03:07:49.726Z,5.22
2023-06-17T03:08:52.603Z,5.60
2023-06-17T03:09:55.389Z,4.85
2023-06-17T03:10:58.197Z,5.53
2023-06-17T03:12:01.696Z,5.10
2023-06-17T03:13:04.806Z,5.07
2023-06-17T03:14:07.682Z,5.15
2023-06-17T03:15:10.782Z,5.55
2023-06-17T03:16:18.511Z,5.43
2023-06-17T03:17:22.808Z,5.50
2023-06-17T03:18:25.976Z,5.20
2023-06-17T03:19:28.939Z,4.90
2023-06-17T03:20:32.273Z,5.22
2023-06-17T03:21:40.683Z,4.72
2023-06-17T03:22:43.584Z,5.10
2023-06-17T03:23:47.073Z,5.43
2023-06-17T03:24:49.912Z,5.43
2023-06-17T03:25:53.703Z,5.05
2023-06-17T03:26:56.545Z,4.72
2023-06-17T03:28:02.341Z,5.10
2023-06-17T03:29:05.643Z,5.12
2023-06-17T03:30:09.273Z,5.30
2023-06-17T03:31:14.867Z,5.65
2023-06-17T03:32:17.725Z,4.60
2023-06-17T03:33:20.973Z,4.93
2023-06-17T03:34:24.437Z,5.12
2023-06-17T03:35:27.432Z,4.93
2023-06-17T03:36:30.837Z,5.22
2023-06-17T03:37:33.709Z,4.95
2023-06-17T03:38:36.602Z,5.65
2023-06-17T03:39:39.579Z,5.18
2023-06-17T03:40:42.526Z,5.60
2023-06-17T03:41:45.587Z,5.40
2023-06-17T03:42:48.534Z,5.55
2023-06-17T03:43:51.730Z,5.32
2023-06-17T03:44:54.620Z,5.50
2023-06-17T03:45:57.492Z,5.30
2023-06-17T03:47:01.057Z,5.93
2023-06-17T03:48:04.893Z,5.87
2023-06-17T03:49:07.739Z,5.55
2023-06-17T03:50:11.148Z,5.97
2023-06-17T03:51:13.943Z,5.78
2023-06-17T03:52:17.056Z,5.53
2023-06-17T03:53:20.066Z,6.03
2023-06-17T03:54:22.971Z,5.93
2023-06-17T03:55:26.491Z,5.32
2023-06-17T03:56:29.430Z,6.03
2023-06-17T03:57:32.422Z,5.60
2023-06-17T03:58:35.475Z,6.30
2023-06-17T03:59:38.472Z,5.75
2023-06-17T04:00:42.293Z,5.20
2023-06-17T04:01:45.472Z,5.68
2023-06-17T04:02:49.086Z,5.70
2023-06-17T04:03:52.584Z,6.20
2023-06-17T04:04:55.437Z,5.90
2023-06-17T04:05:58.300Z,5.78
2023-06-17T04:07:01.539Z,5.45
2023-06-17T04:08:05.293Z,6.00
2023-06-17T04:09:08.406Z,5.00
2023-06-17T04:10:11.575Z,5.53
2023-06-17T04:11:14.877Z,5.90
2023-06-17T04:12:18.390Z,5.40
2023-06-17T04:13:21.238Z,5.50
2023-06-17T04:14:24.265Z,4.85
2023-06-17T04:15:27.278Z,5.53
2023-06-17T04:16:36.920Z,5.15
2023-06-17T04:17:39.975Z,5.57
2023-06-17T04:18:42.815Z,4.97
2023-06-17T04:19:45.718Z,5.15
2023-06-17T04:20:48.701Z,4.78
2023-06-17T04:21:51.759Z,4.95
2023-06-17T04:22:54.560Z,5.32
2023-06-17T04:23:57.399Z,5.10
2023-06-17T04:25:00.289Z,4.85
2023-06-17T04:26:03.311Z,5.47
2023-06-17T04:27:07.557Z,5.10
2023-06-17T04:28:14.319Z,4.90
2023-06-17T04:29:17.197Z,4.95
2023-06-17T04:30:20.734Z,5.05
2023-06-17T04:31:24.328Z,5.37
2023-06-17T04:32:28.051Z,4.95
2023-06-17T04:33:32.128Z,4.95
2023-06-17T04:34:34.913Z,4.78
2023-06-17T04:35:38.342Z,4.90
2023-06-17T04:36:41.224Z,5.62
2023-06-17T04:37:44.471Z,4.72
2023-06-17T04:38:49.294Z,5.28
2023-06-17T04:39:54.499Z,5.28
2023-06-17T04:40:57.797Z,5.22
2023-06-17T04:42:00.734Z,4.75
2023-06-17T04:43:04.947Z,5.12
2023-06-17T04:44:09.717Z,4.82
2023-06-17T04:45:12.632Z,5.45
2023-06-17T04:46:17.918Z,5.50
2023-06-17T04:47:23.923Z,4.72
2023-06-17T04:48:26.836Z,5.20
2023-06-17T04:49:30.093Z,5.05
2023-06-17T04:50:36.821Z,4.72
2023-06-17T04:51:41.809Z,4.37
2023-06-17T04:52:52.565Z,4.50
2023-06-17T04:54:58.095Z,4.72
2023-06-17T04:56:01.756Z,4.87
2023-06-17T04:57:05.921Z,4.70
2023-06-17T04:58:08.846Z,4.87
2023-06-17T04:59:11.879Z,4.50
2023-06-17T05:00:15.292Z,5.47
2023-06-17T05:01:18.063Z,4.80
2023-06-17T05:02:21.081Z,4.65
2023-06-17T05:03:24.204Z,5.15
2023-06-17T05:04:27.129Z,4.80
2023-06-17T05:05:29.938Z,4.85
2023-06-17T05:06:33.289Z,5.10
2023-06-17T05:07:36.532Z,4.80
2023-06-17T05:08:39.460Z,4.55
2023-06-17T05:09:42.388Z,4.68
2023-06-17T05:10:45.236Z,4.87
2023-06-17T05:11:48.183Z,4.72
2023-06-17T05:12:51.014Z,4.60
2023-06-17T05:13:53.913Z,4.70
2023-06-17T05:14:56.738Z,4.80
2023-06-17T05:15:59.700Z,4.57
2023-06-17T05:17:02.513Z,5.03
2023-06-17T05:18:05.500Z,5.37
2023-06-17T05:19:08.440Z,5.10
2023-06-17T05:20:11.666Z,5.20
2023-06-17T05:21:14.474Z,4.90
2023-06-17T05:22:17.364Z,4.78
2023-06-17T05:23:20.144Z,4.90
2023-06-17T05:24:23.108Z,5.30
2023-06-17T05:25:26.122Z,4.75
2023-06-17T05:26:29.350Z,5.07
2023-06-17T05:27:32.367Z,4.70
2023-06-17T05:28:35.343Z,5.07
2023-06-17T05:29:40.106Z,4.93
2023-06-17T05:30:44.579Z,4.97
2023-06-17T05:31:47.667Z,5.03
2023-06-17T05:32:50.798Z,4.75
2023-06-17T05:33:53.593Z,4.75
2023-06-17T05:34:56.494Z,4.55
2023-06-17T05:36:01.999Z,4.65
2023-06-17T05:37:05.150Z,4.55
2023-06-17T05:38:07.915Z,4.82
2023-06-17T05:39:10.794Z,5.10
2023-06-17T05:40:14.754Z,4.70
2023-06-17T05:41:17.534Z,5.00
2023-06-17T05:42:20.529Z,4.40
2023-06-17T05:43:29.346Z,4.75
2023-06-17T05:44:32.193Z,4.87
2023-06-17T05:45:35.159Z,4.70
2023-06-17T05:46:38.126Z,5.05
2023-06-17T05:47:41.106Z,4.45
2023-06-17T05:48:43.960Z,4.70
2023-06-17T05:49:46.960Z,4.82
2023-06-17T05:50:49.853Z,4.70
2023-06-17T05:51:52.849Z,4.93
2023-06-17T05:52:55.596Z,4.82
2023-06-17T05:53:58.375Z,4.70
2023-06-17T05:55:01.265Z,5.00
2023-06-17T05:56:04.311Z,4.72
2023-06-17T05:57:07.200Z,5.00
2023-06-17T05:58:10.047Z,4.97
2023-06-17T05:59:12.889Z,4.72
2023-06-17T06:00:16.578Z,4.85
2023-06-17T06:01:19.527Z,4.62
2023-06-17T06:02:22.623Z,4.75
2023-06-17T06:03:25.710Z,4.80
2023-06-17T06:04:28.824Z,4.87
2023-06-17T06:05:31.632Z,5.32
2023-06-17T06:06:35.034Z,5.22
2023-06-17T06:07:39.400Z,4.12
2023-06-17T06:08:43.083Z,4.70
2023-06-17T06:09:46.203Z,4.95
2023-06-17T06:10:49.226Z,4.15
2023-06-17T06:11:52.155Z,4.68
2023-06-17T06:12:55.252Z,4.80
2023-06-17T06:13:58.303Z,5.40
2023-06-17T06:15:01.197Z,5.30
2023-06-17T06:16:05.076Z,4.55
2023-06-17T06:17:08.006Z,5.15
2023-06-17T06:18:10.983Z,4.32
2023-06-17T06:19:13.976Z,4.80
2023-06-17T06:20:16.934Z,5.07
2023-06-17T06:21:19.800Z,4.90
2023-06-17T06:22:22.712Z,4.45
2023-06-17T06:23:25.815Z,5.15
2023-06-17T06:24:28.706Z,5.30
2023-06-17T06:25:31.583Z,5.30
2023-06-17T06:26:34.443Z,5.07
2023-06-17T06:27:37.435Z,4.68
2023-06-17T06:28:40.184Z,5.32
2023-06-17T06:29:42.955Z,4.90
2023-06-17T06:30:45.918Z,5.07
2023-06-17T06:31:48.681Z,4.90
2023-06-17T06:32:51.572Z,4.60
2023-06-17T06:33:54.583Z,5.07
2023-06-17T06:34:57.412Z,5.10
2023-06-17T06:36:00.389Z,4.80
2023-06-17T06:37:03.229Z,5.07
2023-06-17T06:38:06.340Z,5.05
2023-06-17T06:39:09.199Z,5.35
2023-06-17T06:40:12.545Z,4.93
2023-06-17T06:41:15.468Z,5.28
2023-06-17T06:42:18.328Z,5.20
2023-06-17T06:43:21.580Z,4.62
2023-06-17T06:44:24.359Z,5.18
2023-06-17T06:45:27.339Z,5.22
2023-06-17T06:46:30.415Z,5.35
2023-06-17T06:47:34.081Z,5.50
2023-06-17T06:48:37.168Z,4.97
2023-06-17T06:49:39.966Z,4.87
2023-06-17T06:50:43.020Z,4.93
2023-06-17T06:51:45.863Z,4.95
2023-06-17T06:52:48.915Z,4.90
2023-06-17T06:53:52.680Z,4.82
2023-06-17T06:54:55.711Z,4.65
2023-06-17T06:55:58.729Z,4.78
2023-06-17T06:57:02.631Z,5.50
2023-06-17T06:58:05.661Z,5.15
2023-06-17T06:59:08.601Z,4.78
2023-06-17T07:00:13.517Z,5.00
2023-06-17T07:01:16.689Z,4.40
2023-06-17T07:02:19.768Z,4.95
2023-06-17T07:03:22.505Z,4.80
2023-06-17T07:04:25.659Z,5.10
2023-06-17T07:05:29.974Z,4.87
2023-06-17T07:06:32.890Z,4.85
2023-06-17T07:07:35.738Z,4.72
2023-06-17T07:08:38.581Z,4.50
2023-06-17T07:09:41.553Z,5.03
2023-06-17T07:10:44.555Z,5.60
2023-06-17T07:11:47.335Z,4.97
2023-06-17T07:12:50.247Z,4.40
2023-06-17T07:13:53.209Z,4.45
2023-06-17T07:14:56.670Z,5.00
2023-06-17T07:15:59.692Z,4.65
2023-06-17T07:17:02.675Z,4.62
2023-06-17T07:18:05.610Z,4.70
2023-06-17T07:19:08.497Z,4.40
2023-06-17T07:20:11.803Z,4.12
2023-06-17T07:21:14.733Z,4.65
2023-06-17T07:22:17.654Z,5.03
2023-06-17T07:23:20.543Z,4.43
2023-06-17T07:24:23.476Z,4.75
2023-06-17T07:25:27.200Z,4.40
2023-06-17T07:26:29.963Z,4.57
2023-06-17T07:27:32.796Z,4.50
2023-06-17T07:28:35.647Z,4.50
2023-06-17T07:29:38.514Z,4.78
2023-06-17T07:30:41.989Z,4.50
2023-06-17T07:31:45.030Z,4.90
2023-06-17T07:32:47.961Z,4.80
2023-06-17T07:33:54.055Z,4.07
2023-06-17T07:35:01.080Z,4.18
2023-06-17T07:36:03.944Z,4.80
2023-06-17T07:37:06.963Z,4.82
2023-06-17T07:38:09.728Z,3.95
2023-06-17T07:39:13.574Z,4.85
2023-06-17T07:40:16.300Z,4.25
2023-06-17T07:41:19.185Z,4.35
2023-06-17T07:42:23.089Z,5.00
2023-06-17T07:43:25.874Z,4.60
2023-06-17T07:44:28.629Z,4.25
2023-06-17T07:45:31.840Z,4.47
2023-06-17T07:46:34.545Z,4.22
2023-06-17T07:47:37.704Z,4.40
2023-06-17T07:48:40.647Z,4.65
2023-06-17T07:49:43.501Z,4.70
2023-06-17T07:50:46.312Z,4.62
2023-06-17T07:51:49.047Z,4.57
2023-06-17T07:52:51.733Z,4.80
2023-06-17T07:53:54.414Z,4.05
2023-06-17T07:54:57.267Z,4.00
2023-06-17T07:55:59.935Z,4.32
2023-06-17T07:57:04.416Z,4.20
2023-06-17T07:58:07.087Z,4.53
2023-06-17T07:59:10.012Z,4.18
2023-06-17T08:00:16.182Z,4.35
2023-06-17T08:01:18.965Z,4.30
2023-06-17T08:02:22.627Z,4.35
2023-06-17T08:03:25.653Z,4.60
2023-06-17T08:04:28.436Z,4.37
2023-06-17T08:05:31.356Z,4.12
2023-06-17T08:06:34.179Z,4.22
2023-06-17T08:07:37.229Z,4.43
2023-06-17T08:08:39.947Z,4.80
2023-06-17T08:09:42.705Z,4.45
2023-06-17T08:10:45.870Z,4.45
2023-06-17T08:11:49.351Z,4.40
2023-06-17T08:12:52.208Z,4.68
2023-06-17T08:13:54.993Z,4.47
2023-06-17T08:14:57.653Z,4.37
2023-06-17T08:16:00.823Z,4.62
2023-06-17T08:17:03.831Z,4.68
2023-06-17T08:18:07.052Z,4.60
2023-06-17T08:19:09.780Z,4.62
2023-06-17T08:20:12.848Z,4.45
2023-06-17T08:21:15.918Z,4.55
2023-06-17T08:22:18.839Z,4.68
2023-06-17T08:23:21.571Z,4.95
2023-06-17T08:24:26.676Z,4.15
2023-06-17T08:25:29.517Z,4.60
2023-06-17T08:26:32.201Z,4.65
2023-06-17T08:27:35.056Z,4.53
2023-06-17T08:28:37.891Z,4.65
2023-06-17T08:29:41.549Z,5.12
2023-06-17T08:30:44.577Z,4.20
2023-06-17T08:31:52.304Z,4.60
2023-06-17T08:32:55.142Z,4.32
2023-06-17T08:33:57.789Z,4.62
2023-06-17T08:35:07.473Z,4.90
2023-06-17T08:36:10.206Z,4.35
2023-06-17T08:37:13.039Z,4.85
2023-06-17T08:38:15.819Z,4.50
2023-06-17T08:39:19.425Z,4.40
2023-06-17T08:40:23.993Z,5.07
2023-06-17T08:41:28.805Z,4.87
2023-06-17T08:42:31.555Z,4.60
2023-06-17T08:43:36.588Z,4.53
2023-06-17T08:44:42.988Z,4.68
2023-06-17T08:45:48.984Z,5.00
2023-06-17T08:46:55.563Z,4.72
2023-06-17T08:47:59.288Z,4.93
2023-06-17T08:49:08.014Z,4.85
2023-06-17T08:50:12.636Z,4.18
2023-06-17T08:51:15.658Z,4.62
2023-06-17T08:52:18.734Z,4.60
2023-06-17T08:53:21.735Z,4.53
2023-06-17T08:54:26.360Z,4.68
2023-06-17T08:55:29.847Z,4.50
2023-06-17T08:56:32.530Z,3.97
2023-06-17T08:57:35.645Z,4.87
2023-06-17T08:58:40.042Z,4.40
2023-06-17T08:59:44.422Z,4.65
2023-06-17T09:00:47.735Z,4.80
2023-06-17T09:01:53.945Z,4.55
2023-06-17T09:03:01.011Z,4.75
2023-06-17T09:04:04.602Z,4.72
2023-06-17T09:05:08.054Z,4.53
2023-06-17T09:06:24.874Z,4.57
2023-06-17T09:07:27.843Z,4.62
2023-06-17T09:08:34.722Z,4.22
2023-06-17T09:09:38.300Z,4.00
2023-06-17T09:10:44.957Z,4.47
2023-06-17T09:11:52.773Z,4.50
2023-06-17T09:12:59.897Z,4.20
2023-06-17T09:14:03.521Z,4.40
2023-06-17T09:15:16.575Z,4.20
2023-06-17T09:16:26.812Z,4.00
2023-06-17T09:17:33.789Z,4.50
2023-06-17T09:18:36.759Z,4.22
2023-06-17T09:19:42.508Z,4.53
2023-06-17T09:20:55.903Z,4.40
2023-06-17T09:22:07.141Z,4.50
2023-06-17T09:23:18.053Z,4.05
2023-06-17T09:24:29.872Z,4.07
2023-06-17T09:25:36.539Z,3.95
2023-06-17T09:26:44.623Z,3.65
2023-06-17T09:29:06.441Z,4.22
2023-06-17T09:30:11.009Z,4.10
2023-06-17T09:31:14.036Z,4.20
2023-06-17T09:32:16.934Z,3.90
2023-06-17T09:33:21.417Z,3.78
2023-06-17T09:34:25.903Z,3.80
2023-06-17T09:35:28.631Z,4.10
2023-06-17T09:36:31.717Z,4.20
2023-06-17T09:37:37.517Z,4.32
2023-06-17T09:38:42.583Z,3.97
2023-06-17T09:39:46.046Z,4.00
2023-06-17T09:40:51.119Z,4.20
2023-06-17T09:41:56.016Z,3.87
2023-06-17T09:43:16.397Z,4.32
2023-06-17T09:44:25.599Z,4.12
2023-06-17T09:45:28.403Z,4.10
2023-06-17T09:46:36.812Z,4.12
2023-06-17T09:47:39.993Z,4.40
2023-06-17T09:48:44.267Z,4.47
2023-06-17T09:49:50.784Z,4.10
2023-06-17T09:50:57.762Z,3.95
2023-06-17T09:52:04.038Z,4.53
2023-06-17T09:53:07.312Z,4.05
2023-06-17T09:54:12.899Z,4.00
2023-06-17T09:55:16.297Z,3.87
2023-06-17T09:56:20.422Z,4.25
2023-06-17T09:57:23.326Z,4.35
2023-06-17T09:58:33.202Z,4.28
2023-06-17T09:59:37.205Z,3.90
2023-06-17T10:00:40.598Z,4.22
2023-06-17T10:01:43.446Z,4.10
2023-06-17T10:02:46.230Z,4.10
2023-06-17T10:03:49.148Z,4.47
2023-06-17T10:04:52.049Z,4.07
2023-06-17T10:06:20.715Z,4.00
2023-06-17T10:07:27.882Z,4.10
2023-06-17T10:08:32.180Z,4.03
2023-06-17T10:09:35.546Z,3.53
2023-06-17T10:10:38.438Z,3.92
2023-06-17T10:11:46.573Z,4.15
2023-06-17T10:12:51.989Z,4.05
2023-06-17T10:14:02.013Z,4.20
2023-06-17T10:15:05.933Z,3.95
2023-06-17T10:16:20.226Z,4.20
2023-06-17T10:17:24.387Z,4.10
2023-06-17T10:18:30.034Z,4.07
2023-06-17T10:19:36.153Z,3.87
2023-06-17T10:20:40.422Z,3.70
2023-06-17T10:21:48.053Z,4.15
2023-06-17T10:22:56.126Z,3.90
2023-06-17T10:24:01.956Z,4.05
2023-06-17T10:25:07.058Z,3.97
2023-06-17T10:26:12.967Z,4.03
2023-06-17T10:27:15.904Z,4.00
2023-06-17T10:28:18.884Z,3.60
2023-06-17T10:29:21.908Z,3.72
2023-06-17T10:30:29.308Z,3.80
2023-06-17T10:31:33.334Z,3.85
2023-06-17T10:32:38.879Z,3.60
2023-06-17T10:33:48.999Z,4.05
2023-06-17T10:35:06.817Z,3.33
2023-06-17T10:36:11.112Z,4.10
2023-06-17T10:37:28.196Z,3.83
2023-06-17T10:38:31.976Z,3.67
2023-06-17T10:39:34.757Z,3.62
2023-06-17T10:40:48.504Z,4.07
2023-06-17T10:41:52.225Z,3.80
2023-06-17T10:43:04.020Z,4.07
2023-06-17T10:44:21.899Z,4.20
2023-06-17T10:45:25.578Z,3.80
2023-06-17T10:46:33.469Z,4.40
2023-06-17T10:47:36.244Z,3.75
2023-06-17T10:48:38.977Z,3.90
2023-06-17T10:49:43.000Z,4.03
2023-06-17T10:50:50.082Z,3.87
2023-06-17T10:52:00.767Z,4.05
2023-06-17T10:53:03.989Z,4.12
2023-06-17T10:54:06.713Z,3.70
2023-06-17T10:55:10.803Z,3.83
2023-06-17T10:56:15.104Z,3.80
2023-06-17T10:57:29.101Z,3.90
2023-06-17T10:58:33.519Z,4.07
2023-06-17T10:59:36.424Z,4.25
2023-06-17T11:00:39.205Z,4.32
2023-06-17T11:01:42.598Z,4.20
2023-06-17T11:02:45.486Z,6.70
2023-06-17T11:03:48.541Z,4.00
2023-06-17T11:04:53.074Z,4.20
2023-06-17T11:06:10.308Z,3.78
2023-06-17T11:07:14.739Z,3.95
2023-06-17T11:08:17.543Z,3.70
2023-06-17T11:09:26.818Z,9.70
2023-06-17T11:10:29.859Z,3.95
2023-06-17T11:11:32.723Z,4.65
2023-06-17T11:12:35.964Z,8.80
2023-06-17T11:13:40.991Z,4.00
2023-06-17T11:14:44.437Z,4.53
2023-06-17T11:15:47.144Z,3.95
2023-06-17T11:16:52.603Z,12.20
2023-06-17T11:18:02.847Z,4.57
2023-06-17T11:19:07.239Z,3.65
2023-06-17T11:20:12.646Z,4.10
2023-06-17T11:21:16.538Z,3.62
2023-06-17T11:22:19.296Z,10.95
2023-06-17T11:23:21.981Z,4.47
2023-06-17T11:24:25.365Z,4.00
2023-06-17T11:25:43.621Z,6.65
2023-06-17T11:26:48.104Z,6.12
2023-06-17T11:27:51.801Z,4.03
2023-06-17T11:28:54.644Z,3.60
2023-06-17T11:29:57.681Z,3.72
2023-06-17T11:31:01.019Z,5.45
2023-06-17T11:32:04.246Z,4.00
2023-06-17T11:33:08.081Z,7.85
2023-06-17T11:34:10.900Z,4.10
2023-06-17T11:35:14.438Z,6.20
2023-06-17T11:36:18.595Z,5.03
2023-06-17T11:37:22.655Z,3.95
2023-06-17T11:38:27.347Z,4.15
2023-06-17T11:39:32.001Z,5.93
2023-06-17T11:40:34.880Z,3.58
2023-06-17T11:41:37.898Z,3.42
2023-06-17T11:42:42.067Z,8.60
2023-06-17T11:43:45.254Z,7.60
2023-06-17T11:44:49.443Z,4.40
2023-06-17T11:45:54.568Z,3.47
2023-06-17T11:47:00.225Z,3.55
2023-06-17T11:48:07.676Z,3.30
2023-06-17T11:49:10.402Z,3.47
2023-06-17T11:50:13.407Z,3.35
2023-06-17T11:51:19.958Z,3.40
2023-06-17T11:52:23.127Z,3.47
2023-06-17T11:53:48.016Z,3.40
2023-06-17T11:54:50.848Z,3.53
2023-06-17T11:55:53.847Z,3.35
2023-06-17T11:56:56.924Z,3.50
2023-06-17T11:58:02.270Z,3.30
2023-06-17T11:59:05.062Z,3.10
2023-06-17T12:00:11.234Z,3.37
2023-06-17T12:01:15.058Z,3.40
2023-06-17T12:02:18.401Z,3.03
2023-06-17T12:03:21.716Z,3.03
2023-06-17T12:04:24.640Z,3.00
2023-06-17T12:05:28.608Z,3.10
2023-06-17T12:06:33.722Z,2.87
2023-06-17T12:07:40.826Z,3.20
2023-06-17T12:08:44.126Z,3.53
2023-06-17T12:09:52.196Z,3.15
2023-06-17T12:10:55.124Z,3.10
2023-06-17T12:12:00.227Z,3.10
2023-06-17T12:13:03.007Z,3.28
2023-06-17T12:14:10.731Z,3.05
2023-06-17T12:15:17.469Z,2.90
2023-06-17T12:16:25.120Z,3.20
2023-06-17T12:17:28.393Z,3.00
2023-06-17T12:18:31.195Z,2.90
2023-06-17T12:19:38.784Z,2.95
2023-06-17T12:20:52.343Z,2.90
2023-06-17T12:21:55.305Z,2.70
2023-06-17T12:22:58.090Z,3.08
2023-06-17T12:24:01.114Z,2.75
2023-06-17T12:25:04.113Z,3.30
2023-06-17T12:26:07.014Z,2.78
2023-06-17T12:27:10.045Z,2.67
2023-06-17T12:28:14.547Z,2.65
2023-06-17T12:29:25.240Z,2.87
2023-06-17T12:30:29.403Z,2.80
2023-06-17T12:31:32.127Z,2.78
2023-06-17T12:32:38.322Z,2.83
2023-06-17T12:33:41.150Z,2.72
2023-06-17T12:34:43.916Z,2.80
2023-06-17T12:35:46.635Z,2.83
2023-06-17T12:36:49.924Z,2.83
2023-06-17T12:37:55.835Z,2.83
2023-06-17T12:38:58.589Z,2.87
2023-06-17T12:40:04.623Z,2.92
2023-06-17T12:41:08.329Z,2.95
2023-06-17T12:42:11.011Z,2.92
2023-06-17T12:43:13.944Z,2.87
2023-06-17T12:44:19.095Z,2.67
2023-06-17T12:45:23.119Z,2.60
2023-06-17T12:46:26.103Z,2.80
2023-06-17T12:47:29.158Z,2.50
2023-06-17T12:48:32.425Z,2.50
2023-06-17T12:49:35.307Z,2.50
2023-06-17T12:50:38.038Z,2.37
2023-06-17T12:51:41.020Z,2.70
2023-06-17T12:52:43.766Z,2.53
2023-06-17T12:53:46.558Z,2.50
2023-06-17T12:54:59.441Z,2.60
2023-06-17T12:56:02.877Z,2.65
2023-06-17T12:57:07.139Z,2.67
2023-06-17T12:58:11.570Z,2.70
2023-06-17T12:59:15.855Z,2.50
2023-06-17T13:00:19.922Z,2.70
2023-06-17T13:01:22.853Z,2.53
2023-06-17T13:02:25.679Z,2.50
2023-06-17T13:03:28.493Z,2.70
2023-06-17T13:04:31.364Z,2.78
2023-06-17T13:05:34.258Z,2.42
2023-06-17T13:06:38.424Z,2.50
2023-06-17T13:07:42.891Z,2.60
2023-06-17T13:08:46.677Z,2.45
2023-06-17T13:09:49.476Z,2.40
2023-06-17T13:10:52.091Z,2.53
2023-06-17T13:11:54.936Z,2.55
2023-06-17T13:12:58.153Z,2.80
2023-06-17T13:14:01.466Z,2.90
2023-06-17T13:15:04.995Z,2.70
2023-06-17T13:16:09.262Z,2.47
2023-06-17T13:17:12.231Z,2.47
2023-06-17T13:18:15.071Z,2.50
2023-06-17T13:19:18.512Z,2.40
2023-06-17T13:20:22.182Z,2.70
2023-06-17T13:21:25.542Z,2.58
2023-06-17T13:22:28.350Z,2.45
2023-06-17T13:23:31.292Z,2.25
2023-06-17T13:24:34.141Z,2.60
2023-06-17T13:25:37.078Z,2.55
2023-06-17T13:26:40.342Z,2.30
2023-06-17T13:27:43.621Z,2.35
2023-06-17T13:28:46.492Z,2.40
2023-06-17T13:29:49.280Z,2.53
2023-06-17T13:30:52.385Z,2.50
2023-06-17T13:31:56.614Z,2.47
2023-06-17T13:32:59.304Z,2.50
2023-06-17T13:34:02.908Z,2.37
2023-06-17T13:35:06.566Z,2.30
2023-06-17T13:36:09.404Z,2.35
2023-06-17T13:37:12.285Z,2.62
2023-06-17T13:38:15.113Z,2.58
2023-06-17T13:39:18.754Z,2.70
2023-06-17T13:40:21.808Z,2.30
2023-06-17T13:41:24.818Z,2.67
2023-06-17T13:42:27.568Z,2.67
2023-06-17T13:43:30.190Z,2.45
2023-06-17T13:44:32.948Z,2.30
2023-06-17T13:45:35.604Z,2.17
2023-06-17T13:46:40.705Z,2.35
2023-06-17T13:47:43.496Z,2.20
2023-06-17T13:48:46.391Z,2.37
2023-06-17T13:49:49.109Z,2.00
2023-06-17T13:50:51.970Z,2.37
2023-06-17T13:51:54.564Z,2.30
2023-06-17T13:53:00.025Z,2.20
2023-06-17T13:54:03.498Z,2.30
2023-06-17T13:55:06.905Z,2.10
2023-06-17T13:56:09.830Z,2.28
2023-06-17T13:57:15.566Z,2.87
2023-06-17T13:58:19.002Z,2.12
2023-06-17T13:59:22.701Z,2.33
2023-06-17T14:00:26.206Z,2.40
2023-06-17T14:01:29.085Z,2.55
2023-06-17T14:02:32.102Z,2.30
2023-06-17T14:03:34.943Z,2.40
2023-06-17T14:04:37.986Z,2.30
2023-06-17T14:05:40.708Z,2.33
2023-06-17T14:06:47.319Z,2.30
2023-06-17T14:07:50.420Z,2.30
2023-06-17T14:08:53.407Z,2.20
2023-06-17T14:09:56.174Z,2.53
2023-06-17T14:10:59.513Z,2.20
2023-06-17T14:12:04.316Z,2.20
2023-06-17T14:13:07.343Z,2.20
2023-06-17T14:14:10.287Z,2.47
2023-06-17T14:15:12.945Z,2.30
2023-06-17T14:16:16.401Z,2.33
2023-06-17T14:17:19.182Z,2.75
2023-06-17T14:18:21.870Z,2.40